Terminal Aerodrome Forecast
Issued by NWS

Home | Current Version | Previous Version | Text Only | Print | Product List | Glossary On
Versions: 1 2 3 4 5 6 7 8 9 10 11 12 13 14 15 16 17 18 19 20 21 22 23 24 25 26 27 28 29 30 31 32 33 34 35 36 37 38 39 40 41 42 43
000
FTUS43 KPAH 120105 AAA
TAFOWB
TAF AMD
KOWB 120105Z 1201/1224 02003KT P6SM FEW060 BKN130
     FM120600 07003KT P6SM OVC070
     FM121030 28002KT 4SM -SN BR BKN015 OVC035
      TEMPO 1212/1213 2SM -SN BR
     FM121700 33006KT P6SM OVC022=

USA.gov is the U.S. government's official web portal to all federal, state and local government web resources and services.